Barefoot Beach, Florida
Current Conditions -  °F | °C
As of 10:03 AM on Monday 24 Nov 2014 (Local Time) from KRSW Reporting Station
Broken Clouds Broken Clouds  
Wind Chill: 79°   Ceiling: 2400
Heat Index: 82°   Visibility: 10mi
Dew Point: 73°   Wind: 9mph
Humidity: 82%   Direction: 200°SSW
Pressure: 30.01"   Gusts: NA
Location:  26.3649°N, 81.8304°W
Report Text: KRSW 241503Z 20008KT 10SM SCT016 BKN024 26/23 A3001 RMK AO2 T02610228
Loading
Personal Weather Stations






























Interactive Weather Map New forecast layout! Learn more

10-Day Weather Forecast

Advertisements
Track Severe Weather on mobile